createdAt,value
2018-11-06T00:00:28.371Z,14.80
2018-11-06T00:05:20.994Z,14.37
2018-11-06T00:10:13.594Z,14.27
2018-11-06T00:15:07.422Z,14.70
2018-11-06T00:20:00.040Z,14.47
2018-11-06T00:24:52.770Z,14.27
2018-11-06T00:29:45.478Z,14.03
2018-11-06T00:34:39.175Z,13.73
2018-11-06T00:39:32.687Z,14.00
2018-11-06T00:44:25.292Z,14.40
2018-11-06T00:49:18.163Z,15.10
2018-11-06T00:54:10.757Z,13.77
2018-11-06T00:59:03.381Z,15.13
2018-11-06T01:04:01.902Z,14.43
2018-11-06T01:08:54.528Z,15.00
2018-11-06T01:13:47.555Z,14.23
2018-11-06T01:18:40.181Z,14.90
2018-11-06T01:23:32.837Z,14.70
2018-11-06T01:28:25.456Z,15.30
2018-11-06T01:33:18.075Z,15.30
2018-11-06T01:38:10.675Z,15.33
2018-11-06T01:43:04.485Z,14.63
2018-11-06T01:47:57.090Z,15.57
2018-11-06T01:52:49.693Z,15.90
2018-11-06T01:57:42.330Z,15.27
2018-11-06T02:02:34.925Z,14.43
2018-11-06T02:07:27.533Z,15.60
2018-11-06T02:12:20.011Z,16.17
2018-11-06T02:17:12.566Z,15.57
2018-11-06T02:22:05.067Z,15.43
2018-11-06T02:26:57.798Z,15.97
2018-11-06T02:31:50.421Z,15.63
2018-11-06T02:36:43.034Z,16.37
2018-11-06T02:41:35.685Z,16.50
2018-11-06T02:46:28.314Z,15.30
2018-11-06T02:51:20.949Z,16.83
2018-11-06T02:56:13.586Z,16.67
2018-11-06T03:01:06.726Z,15.80
2018-11-06T03:05:59.364Z,15.83
2018-11-06T03:10:51.989Z,16.40
2018-11-06T03:15:44.604Z,16.37
2018-11-06T03:20:37.251Z,16.63
2018-11-06T03:25:29.890Z,16.83
2018-11-06T03:30:22.487Z,16.77
2018-11-06T03:35:15.326Z,17.70
2018-11-06T03:40:08.740Z,17.30
2018-11-06T03:45:01.424Z,17.30
2018-11-06T03:49:54.021Z,17.43
2018-11-06T03:54:46.633Z,17.90
2018-11-06T03:59:39.303Z,18.33
2018-11-06T04:04:31.913Z,17.30
2018-11-06T04:09:24.505Z,18.20
2018-11-06T04:14:17.134Z,18.07
2018-11-06T04:19:09.777Z,17.93
2018-11-06T04:24:02.901Z,18.40
2018-11-06T04:28:55.558Z,19.30
2018-11-06T04:33:48.317Z,18.23
2018-11-06T04:38:40.901Z,19.10
2018-11-06T04:43:33.591Z,18.63
2018-11-06T04:48:26.234Z,18.50
2018-11-06T04:53:19.901Z,18.80
2018-11-06T04:58:12.598Z,18.47
2018-11-06T05:03:05.313Z,19.23
2018-11-06T05:07:57.945Z,18.13
2018-11-06T05:12:51.056Z,18.60
2018-11-06T05:17:43.750Z,19.67
2018-11-06T05:22:36.498Z,19.60
2018-11-06T05:27:29.395Z,19.87
2018-11-06T05:32:22.051Z,19.83
2018-11-06T05:37:14.620Z,20.43
2018-11-06T05:42:07.184Z,20.97
2018-11-06T05:46:59.969Z,20.73
2018-11-06T05:51:52.642Z,21.53
2018-11-06T05:56:45.263Z,20.73
2018-11-06T06:01:38.430Z,20.40
2018-11-06T06:06:31.419Z,22.13
2018-11-06T06:11:24.490Z,20.93
2018-11-06T06:16:17.521Z,21.83
2018-11-06T06:21:10.522Z,21.83
2018-11-06T06:26:03.352Z,21.50
2018-11-06T06:30:56.373Z,22.67
2018-11-06T06:35:49.512Z,22.20
2018-11-06T06:40:42.277Z,23.37
2018-11-06T06:45:34.945Z,22.33
2018-11-06T06:50:27.816Z,23.37
2018-11-06T06:55:20.468Z,22.90
2018-11-06T07:00:14.878Z,23.87
2018-11-06T07:05:09.396Z,24.10
2018-11-06T07:10:02.158Z,24.80
2018-11-06T07:14:55.074Z,25.00
2018-11-06T07:19:47.838Z,24.97
2018-11-06T07:24:40.489Z,26.20
2018-11-06T07:29:33.209Z,26.23
2018-11-06T07:34:25.947Z,25.83
2018-11-06T07:39:18.756Z,25.67
2018-11-06T07:44:11.619Z,26.17
2018-11-06T07:49:04.811Z,26.73
2018-11-06T07:53:57.554Z,27.27
2018-11-06T07:58:50.244Z,27.70
2018-11-06T08:03:42.968Z,26.13
2018-11-06T08:08:35.592Z,26.43
2018-11-06T08:13:28.281Z,27.00
2018-11-06T08:18:20.990Z,29.45
2018-11-06T08:23:13.658Z,26.17
2018-11-06T08:28:06.292Z,25.17
2018-11-06T08:32:59.023Z,27.00
2018-11-06T08:42:56.865Z,28.13
2018-11-06T08:47:49.634Z,26.80
2018-11-06T08:52:42.483Z,25.43
2018-11-06T08:57:35.178Z,24.87
2018-11-06T09:02:27.913Z,24.60
2018-11-06T09:07:20.725Z,24.10
2018-11-06T09:12:13.514Z,25.67
2018-11-06T09:17:06.334Z,25.73
2018-11-06T09:21:59.080Z,24.80
2018-11-06T09:26:51.780Z,24.83
2018-11-06T09:31:44.596Z,24.33
2018-11-06T09:36:37.314Z,23.33
2018-11-06T09:41:30.500Z,22.50
2018-11-06T09:46:23.301Z,23.97
2018-11-06T09:51:15.888Z,23.17
2018-11-06T09:56:08.546Z,22.73
2018-11-06T10:01:01.285Z,24.43
2018-11-06T10:05:53.949Z,23.10
2018-11-06T10:10:46.662Z,23.13
2018-11-06T10:15:39.361Z,22.80
2018-11-06T10:20:32.066Z,22.37
2018-11-06T10:25:24.691Z,21.73
2018-11-06T10:30:18.609Z,22.13
2018-11-06T10:35:11.546Z,20.83
2018-11-06T10:40:09.870Z,22.40
2018-11-06T10:45:02.559Z,21.80
2018-11-06T10:49:55.145Z,20.77
2018-11-06T10:54:47.785Z,22.53
2018-11-06T10:59:40.506Z,23.03
2018-11-06T11:04:33.190Z,21.60
2018-11-06T11:09:25.821Z,21.10
2018-11-06T11:14:18.495Z,22.30
2018-11-06T11:19:11.963Z,21.80
2018-11-06T11:24:05.067Z,21.53
2018-11-06T11:28:57.693Z,22.33
2018-11-06T11:33:50.552Z,20.07
2018-11-06T11:38:43.207Z,21.37
2018-11-06T11:43:36.515Z,20.33
2018-11-06T11:48:29.287Z,21.23
2018-11-06T11:53:21.951Z,21.00
2018-11-06T11:58:15.018Z,20.53
2018-11-06T12:03:08.173Z,19.97
2018-11-06T12:08:00.981Z,20.57
2018-11-06T12:12:53.689Z,19.07
2018-11-06T12:17:46.844Z,20.73
2018-11-06T12:22:39.901Z,20.07
2018-11-06T12:27:32.549Z,19.30
2018-11-06T12:32:25.241Z,19.00
2018-11-06T12:37:17.971Z,19.93
2018-11-06T12:42:10.702Z,18.03
2018-11-06T12:47:03.355Z,18.17
2018-11-06T12:51:56.249Z,18.27
2018-11-06T12:56:48.993Z,18.00
2018-11-06T13:01:41.621Z,17.23
2018-11-06T13:06:34.320Z,17.77
2018-11-06T13:11:26.982Z,18.87
2018-11-06T13:16:19.733Z,18.47
2018-11-06T13:21:12.314Z,18.43
2018-11-06T13:26:05.271Z,17.77
2018-11-06T13:30:57.994Z,17.37
2018-11-06T13:35:50.846Z,17.37
2018-11-06T13:40:43.482Z,18.47
2018-11-06T13:45:36.304Z,16.93
2018-11-06T13:50:28.871Z,17.00
2018-11-06T13:55:22.090Z,17.57
2018-11-06T14:00:18.621Z,17.63
2018-11-06T14:05:11.812Z,17.40
2018-11-06T14:10:05.030Z,17.87
2018-11-06T14:14:57.797Z,17.70
2018-11-06T14:19:50.651Z,18.10
2018-11-06T14:24:43.447Z,18.87
2018-11-06T14:29:36.124Z,18.43
2018-11-06T14:34:28.895Z,18.83
2018-11-06T14:39:21.698Z,19.20
2018-11-06T14:44:14.301Z,19.53
2018-11-06T14:49:07.205Z,19.97
2018-11-06T14:53:59.911Z,19.60
2018-11-06T14:58:52.695Z,20.60
2018-11-06T15:03:45.453Z,20.57
2018-11-06T15:08:38.139Z,18.90
2018-11-06T15:13:30.786Z,19.20
2018-11-06T15:18:23.708Z,19.13
2018-11-06T15:23:16.362Z,19.57
2018-11-06T15:28:09.101Z,20.37
2018-11-06T15:33:01.772Z,19.17
2018-11-06T15:37:54.510Z,19.97
2018-11-06T15:42:47.289Z,19.57
2018-11-06T15:47:41.190Z,20.40
2018-11-06T15:52:33.909Z,21.43
2018-11-06T15:57:26.667Z,20.73
2018-11-06T16:02:19.274Z,22.57
2018-11-06T16:07:11.965Z,20.97
2018-11-06T16:12:04.689Z,20.57
2018-11-06T16:16:57.447Z,21.03
2018-11-06T16:21:50.145Z,22.83
2018-11-06T16:26:42.914Z,22.10
2018-11-06T16:31:35.517Z,21.10
2018-11-06T16:36:28.245Z,21.47
2018-11-06T16:41:20.979Z,22.20
2018-11-06T16:46:13.557Z,22.23
2018-11-06T16:51:06.511Z,21.67
2018-11-06T16:55:59.200Z,21.10
2018-11-06T17:00:52.036Z,21.87
2018-11-06T17:05:44.630Z,22.03
2018-11-06T17:10:37.412Z,22.60
2018-11-06T17:15:30.065Z,23.07
2018-11-06T17:20:23.057Z,24.17
2018-11-06T17:25:16.987Z,24.73
2018-11-06T17:30:11.934Z,22.97
2018-11-06T17:35:06.256Z,23.97
2018-11-06T17:39:58.870Z,24.83
2018-11-06T17:44:51.726Z,23.80
2018-11-06T17:49:44.373Z,24.03
2018-11-06T17:54:37.141Z,23.47
2018-11-06T17:59:29.921Z,23.43
2018-11-06T18:04:22.624Z,23.23
2018-11-06T18:09:15.181Z,23.90
2018-11-06T18:14:07.962Z,24.13
2018-11-06T18:19:00.605Z,23.83
2018-11-06T18:23:53.189Z,23.60
2018-11-06T18:28:45.796Z,23.37
2018-11-06T18:33:38.581Z,24.17
2018-11-06T18:38:31.263Z,24.07
2018-11-06T18:43:23.829Z,23.73
2018-11-06T18:48:16.432Z,22.93
2018-11-06T18:53:09.181Z,24.63
2018-11-06T18:58:02.010Z,24.23
2018-11-06T19:02:54.482Z,24.37
2018-11-06T19:07:47.160Z,23.87
2018-11-06T19:12:40.129Z,22.40
2018-11-06T19:17:32.773Z,23.20
2018-11-06T19:22:25.410Z,24.40
2018-11-06T19:27:18.078Z,23.90
2018-11-06T19:32:11.107Z,24.37
2018-11-06T19:37:04.095Z,24.13
2018-11-06T19:41:56.862Z,25.23
2018-11-06T19:46:49.579Z,24.53
2018-11-06T19:51:42.261Z,23.43
2018-11-06T19:56:34.920Z,24.53
2018-11-06T20:01:27.736Z,24.13
2018-11-06T20:06:20.672Z,23.73
2018-11-06T20:11:13.306Z,23.93
2018-11-06T20:16:05.950Z,23.23
2018-11-06T20:20:58.598Z,24.40
2018-11-06T20:25:51.274Z,24.90
2018-11-06T20:30:43.876Z,24.20
2018-11-06T20:35:36.524Z,24.53
2018-11-06T20:40:29.158Z,25.40
2018-11-06T20:45:22.252Z,25.90
2018-11-06T20:50:18.821Z,25.50
2018-11-06T20:55:12.687Z,26.47
2018-11-06T21:00:08.844Z,25.53
2018-11-06T21:05:01.500Z,26.57
2018-11-06T21:09:54.329Z,26.60
2018-11-06T21:14:47.164Z,26.10
2018-11-06T21:19:39.974Z,26.67
2018-11-06T21:24:32.613Z,26.00
2018-11-06T21:29:25.274Z,26.83
2018-11-06T21:34:18.042Z,25.90
2018-11-06T21:39:10.735Z,28.30
2018-11-06T21:44:03.446Z,28.40
2018-11-06T21:48:56.078Z,26.90
2018-11-06T21:53:48.750Z,26.00
2018-11-06T21:58:41.422Z,27.50
2018-11-06T22:03:33.991Z,28.00
2018-11-06T22:08:26.601Z,28.17
2018-11-06T22:13:19.257Z,26.70
2018-11-06T22:18:11.901Z,28.57
2018-11-06T22:23:04.698Z,26.33
2018-11-06T22:27:57.297Z,27.77
2018-11-06T22:32:49.965Z,27.60
2018-11-06T22:37:42.757Z,27.50
2018-11-06T22:42:35.361Z,27.93
2018-11-06T22:47:27.969Z,26.83
2018-11-06T22:52:20.572Z,27.43
2018-11-06T22:57:13.172Z,26.00
2018-11-06T23:02:05.820Z,27.23
2018-11-06T23:06:58.516Z,27.50
2018-11-06T23:11:51.084Z,27.17
2018-11-06T23:16:43.693Z,25.83
2018-11-06T23:21:36.355Z,26.60
2018-11-06T23:26:29.029Z,24.23
2018-11-06T23:31:21.698Z,25.23
2018-11-06T23:36:14.253Z,24.80
2018-11-06T23:41:06.968Z,24.90
2018-11-06T23:45:59.566Z,24.90
2018-11-06T23:50:52.186Z,25.00
2018-11-06T23:55:44.821Z,25.70
